sensor_id;sensor_type;location;lat;lon;timestamp;temperature;humidity
40153;DHT22;26371;56.992;23.912;2024-01-11T00:00:08;2.40;99.90
40153;DHT22;26371;56.992;23.912;2024-01-11T00:02:36;2.30;99.90
40153;DHT22;26371;56.992;23.912;2024-01-11T00:05:06;2.30;99.90
40153;DHT22;26371;56.992;23.912;2024-01-11T00:07:36;2.30;99.90
40153;DHT22;26371;56.992;23.912;2024-01-11T00:10:05;2.30;99.90
40153;DHT22;26371;56.992;23.912;2024-01-11T00:12:35;2.30;99.90
40153;DHT22;26371;56.992;23.912;2024-01-11T00:15:05;2.20;99.90
40153;DHT22;26371;56.992;23.912;2024-01-11T00:17:34;2.20;99.90
40153;DHT22;26371;56.992;23.912;2024-01-11T00:20:03;2.20;99.90
40153;DHT22;26371;56.992;23.912;2024-01-11T00:22:32;2.20;99.90
40153;DHT22;26371;56.992;23.912;2024-01-11T00:25:02;2.20;99.90
40153;DHT22;26371;56.992;23.912;2024-01-11T00:27:31;2.20;99.90
40153;DHT22;26371;56.992;23.912;2024-01-11T00:30:02;2.20;99.90
40153;DHT22;26371;56.992;23.912;2024-01-11T00:32:31;2.10;99.90
40153;DHT22;26371;56.992;23.912;2024-01-11T00:35:01;2.10;99.90
40153;DHT22;26371;56.992;23.912;2024-01-11T00:37:30;2.10;99.90
40153;DHT22;26371;56.992;23.912;2024-01-11T00:39:59;2.10;99.90
40153;DHT22;26371;56.992;23.912;2024-01-11T00:42:28;2.10;99.90
40153;DHT22;26371;56.992;23.912;2024-01-11T00:44:57;2.10;99.90
40153;DHT22;26371;56.992;23.912;2024-01-11T00:47:27;2.10;99.90
40153;DHT22;26371;56.992;23.912;2024-01-11T00:49:57;2.10;99.90
40153;DHT22;26371;56.992;23.912;2024-01-11T00:52:25;2.20;99.90
40153;DHT22;26371;56.992;23.912;2024-01-11T00:54:54;2.20;99.90
40153;DHT22;26371;56.992;23.912;2024-01-11T00:57:23;2.20;99.90
40153;DHT22;26371;56.992;23.912;2024-01-11T00:59:52;2.30;99.90
40153;DHT22;26371;56.992;23.912;2024-01-11T01:02:21;2.30;99.90
40153;DHT22;26371;56.992;23.912;2024-01-11T01:04:52;2.30;99.90
40153;DHT22;26371;56.992;23.912;2024-01-11T01:07:21;2.30;99.90
40153;DHT22;26371;56.992;23.912;2024-01-11T01:09:50;2.30;99.90
40153;DHT22;26371;56.992;23.912;2024-01-11T01:12:19;2.30;99.90
40153;DHT22;26371;56.992;23.912;2024-01-11T01:14:47;2.30;99.90
40153;DHT22;26371;56.992;23.912;2024-01-11T01:17:16;2.30;99.90
40153;DHT22;26371;56.992;23.912;2024-01-11T01:19:46;2.30;99.90
40153;DHT22;26371;56.992;23.912;2024-01-11T01:22:16;2.30;99.90
40153;DHT22;26371;56.992;23.912;2024-01-11T01:24:45;2.30;99.90
40153;DHT22;26371;56.992;23.912;2024-01-11T01:27:14;2.30;99.90
40153;DHT22;26371;56.992;23.912;2024-01-11T01:29:43;2.30;99.90
40153;DHT22;26371;56.992;23.912;2024-01-11T01:32:12;2.30;99.90
40153;DHT22;26371;56.992;23.912;2024-01-11T01:34:40;2.30;99.90
40153;DHT22;26371;56.992;23.912;2024-01-11T01:37:12;2.30;99.90
40153;DHT22;26371;56.992;23.912;2024-01-11T01:39:43;2.30;99.90
40153;DHT22;26371;56.992;23.912;2024-01-11T01:42:12;2.30;99.90
40153;DHT22;26371;56.992;23.912;2024-01-11T01:44:41;2.40;99.90
40153;DHT22;26371;56.992;23.912;2024-01-11T01:47:10;2.40;99.90
40153;DHT22;26371;56.992;23.912;2024-01-11T01:49:40;2.40;99.90
40153;DHT22;26371;56.992;23.912;2024-01-11T01:52:10;2.40;99.90
40153;DHT22;26371;56.992;23.912;2024-01-11T01:54:39;2.30;99.90
40153;DHT22;26371;56.992;23.912;2024-01-11T01:57:10;2.40;99.90
40153;DHT22;26371;56.992;23.912;2024-01-11T01:59:42;2.40;99.90
40153;DHT22;26371;56.992;23.912;2024-01-11T02:02:14;2.40;99.90
40153;DHT22;26371;56.992;23.912;2024-01-11T02:04:50;2.40;99.90
40153;DHT22;26371;56.992;23.912;2024-01-11T02:07:20;2.40;99.90
40153;DHT22;26371;56.992;23.912;2024-01-11T02:09:49;2.40;99.90
40153;DHT22;26371;56.992;23.912;2024-01-11T02:12:20;2.40;99.90
40153;DHT22;26371;56.992;23.912;2024-01-11T02:14:50;2.40;99.90
40153;DHT22;26371;56.992;23.912;2024-01-11T02:17:19;2.40;99.90
40153;DHT22;26371;56.992;23.912;2024-01-11T02:19:48;2.40;99.90
40153;DHT22;26371;56.992;23.912;2024-01-11T02:22:21;2.40;99.90
40153;DHT22;26371;56.992;23.912;2024-01-11T02:24:55;2.30;99.90
40153;DHT22;26371;56.992;23.912;2024-01-11T02:27:25;2.30;99.90
40153;DHT22;26371;56.992;23.912;2024-01-11T02:29:54;2.30;99.90
40153;DHT22;26371;56.992;23.912;2024-01-11T02:32:23;2.30;99.90
40153;DHT22;26371;56.992;23.912;2024-01-11T02:34:54;2.40;99.90
40153;DHT22;26371;56.992;23.912;2024-01-11T02:37:23;2.40;99.90
40153;DHT22;26371;56.992;23.912;2024-01-11T02:39:54;2.40;99.90
40153;DHT22;26371;56.992;23.912;2024-01-11T02:42:23;2.40;99.90
40153;DHT22;26371;56.992;23.912;2024-01-11T02:44:52;2.40;99.90
40153;DHT22;26371;56.992;23.912;2024-01-11T02:47:21;2.50;99.90
40153;DHT22;26371;56.992;23.912;2024-01-11T02:49:50;2.50;99.90
40153;DHT22;26371;56.992;23.912;2024-01-11T02:52:20;2.50;99.90
40153;DHT22;26371;56.992;23.912;2024-01-11T02:54:49;2.50;99.90
40153;DHT22;26371;56.992;23.912;2024-01-11T02:57:19;2.50;99.90
40153;DHT22;26371;56.992;23.912;2024-01-11T02:59:49;2.50;99.90
40153;DHT22;26371;56.992;23.912;2024-01-11T03:02:18;2.50;99.90
40153;DHT22;26371;56.992;23.912;2024-01-11T03:04:47;2.50;99.90
40153;DHT22;26371;56.992;23.912;2024-01-11T03:07:16;2.50;99.90
40153;DHT22;26371;56.992;23.912;2024-01-11T03:09:45;2.50;99.90
40153;DHT22;26371;56.992;23.912;2024-01-11T03:12:14;2.50;99.90
40153;DHT22;26371;56.992;23.912;2024-01-11T03:14:44;2.50;99.90
40153;DHT22;26371;56.992;23.912;2024-01-11T03:17:14;2.50;99.90
40153;DHT22;26371;56.992;23.912;2024-01-11T03:19:43;2.50;99.90
40153;DHT22;26371;56.992;23.912;2024-01-11T03:22:12;2.50;99.90
40153;DHT22;26371;56.992;23.912;2024-01-11T03:24:42;2.50;99.90
40153;DHT22;26371;56.992;23.912;2024-01-11T03:27:13;2.50;99.90
40153;DHT22;26371;56.992;23.912;2024-01-11T03:29:43;2.60;99.90
40153;DHT22;26371;56.992;23.912;2024-01-11T03:32:12;2.60;99.90
40153;DHT22;26371;56.992;23.912;2024-01-11T03:34:41;2.60;99.90
40153;DHT22;26371;56.992;23.912;2024-01-11T03:37:10;2.60;99.90
40153;DHT22;26371;56.992;23.912;2024-01-11T03:39:39;2.60;99.90
40153;DHT22;26371;56.992;23.912;2024-01-11T03:42:08;2.60;99.90
40153;DHT22;26371;56.992;23.912;2024-01-11T03:44:38;2.60;99.90
40153;DHT22;26371;56.992;23.912;2024-01-11T03:47:07;2.60;99.90
40153;DHT22;26371;56.992;23.912;2024-01-11T03:49:37;2.60;99.90
40153;DHT22;26371;56.992;23.912;2024-01-11T03:52:06;2.60;99.90
40153;DHT22;26371;56.992;23.912;2024-01-11T03:54:35;2.60;99.90
40153;DHT22;26371;56.992;23.912;2024-01-11T03:57:04;2.70;99.90
40153;DHT22;26371;56.992;23.912;2024-01-11T03:59:34;2.70;99.90
40153;DHT22;26371;56.992;23.912;2024-01-11T04:02:03;2.70;99.90
40153;DHT22;26371;56.992;23.912;2024-01-11T04:04:34;2.60;99.90
40153;DHT22;26371;56.992;23.912;2024-01-11T04:07:03;2.70;99.90
40153;DHT22;26371;56.992;23.912;2024-01-11T04:09:33;2.70;99.90
40153;DHT22;26371;56.992;23.912;2024-01-11T04:12:02;2.70;99.90
40153;DHT22;26371;56.992;23.912;2024-01-11T04:14:31;2.70;99.90
40153;DHT22;26371;56.992;23.912;2024-01-11T04:17:00;2.70;99.90
40153;DHT22;26371;56.992;23.912;2024-01-11T04:19:29;2.70;99.90
40153;DHT22;26371;56.992;23.912;2024-01-11T04:22:01;2.70;99.90
40153;DHT22;26371;56.992;23.912;2024-01-11T04:24:32;2.70;99.90
40153;DHT22;26371;56.992;23.912;2024-01-11T04:27:01;2.70;99.90
40153;DHT22;26371;56.992;23.912;2024-01-11T04:29:30;2.70;99.90
40153;DHT22;26371;56.992;23.912;2024-01-11T04:31:59;2.70;99.90
40153;DHT22;26371;56.992;23.912;2024-01-11T04:34:30;2.80;99.90
40153;DHT22;26371;56.992;23.912;2024-01-11T04:37:00;2.70;99.90
40153;DHT22;26371;56.992;23.912;2024-01-11T04:39:29;2.80;99.90
40153;DHT22;26371;56.992;23.912;2024-01-11T04:41:59;2.80;99.90
40153;DHT22;26371;56.992;23.912;2024-01-11T04:44:29;2.80;99.90
40153;DHT22;26371;56.992;23.912;2024-01-11T04:46:58;2.80;99.90
40153;DHT22;26371;56.992;23.912;2024-01-11T04:49:27;2.80;99.90
40153;DHT22;26371;56.992;23.912;2024-01-11T04:52:00;2.80;99.90
40153;DHT22;26371;56.992;23.912;2024-01-11T04:54:29;2.80;99.90
40153;DHT22;26371;56.992;23.912;2024-01-11T04:56:58;2.80;99.90
40153;DHT22;26371;56.992;23.912;2024-01-11T04:59:27;2.80;99.90
40153;DHT22;26371;56.992;23.912;2024-01-11T05:01:56;2.80;99.90
40153;DHT22;26371;56.992;23.912;2024-01-11T05:04:25;2.70;99.90
40153;DHT22;26371;56.992;23.912;2024-01-11T05:06:54;2.70;99.90
40153;DHT22;26371;56.992;23.912;2024-01-11T05:09:24;2.70;99.90
40153;DHT22;26371;56.992;23.912;2024-01-11T05:11:53;2.70;99.90
40153;DHT22;26371;56.992;23.912;2024-01-11T05:14:22;2.70;99.90
40153;DHT22;26371;56.992;23.912;2024-01-11T05:16:52;2.70;99.90
40153;DHT22;26371;56.992;23.912;2024-01-11T05:19:22;2.60;99.90
40153;DHT22;26371;56.992;23.912;2024-01-11T05:21:51;2.60;99.90
40153;DHT22;26371;56.992;23.912;2024-01-11T05:24:21;2.60;99.90
40153;DHT22;26371;56.992;23.912;2024-01-11T05:26:51;2.60;99.90
40153;DHT22;26371;56.992;23.912;2024-01-11T05:29:20;2.60;99.90
40153;DHT22;26371;56.992;23.912;2024-01-11T05:31:49;2.60;99.90
40153;DHT22;26371;56.992;23.912;2024-01-11T05:34:18;2.60;99.90
40153;DHT22;26371;56.992;23.912;2024-01-11T05:36:47;2.60;99.90
40153;DHT22;26371;56.992;23.912;2024-01-11T05:39:16;2.50;99.90
40153;DHT22;26371;56.992;23.912;2024-01-11T05:41:45;2.60;99.90
40153;DHT22;26371;56.992;23.912;2024-01-11T05:44:15;2.50;99.90
40153;DHT22;26371;56.992;23.912;2024-01-11T05:46:44;2.60;99.90
40153;DHT22;26371;56.992;23.912;2024-01-11T05:49:13;2.60;99.90
40153;DHT22;26371;56.992;23.912;2024-01-11T05:51:42;2.60;99.90
40153;DHT22;26371;56.992;23.912;2024-01-11T05:54:11;2.60;99.90
40153;DHT22;26371;56.992;23.912;2024-01-11T05:56:39;2.60;99.90
40153;DHT22;26371;56.992;23.912;2024-01-11T05:59:10;2.60;99.90
40153;DHT22;26371;56.992;23.912;2024-01-11T06:01:42;2.60;99.90
40153;DHT22;26371;56.992;23.912;2024-01-11T06:04:11;2.60;99.90
40153;DHT22;26371;56.992;23.912;2024-01-11T06:06:40;2.60;99.90
40153;DHT22;26371;56.992;23.912;2024-01-11T06:09:09;2.60;99.90
40153;DHT22;26371;56.992;23.912;2024-01-11T06:11:38;2.50;99.90
40153;DHT22;26371;56.992;23.912;2024-01-11T06:14:08;2.50;99.90
40153;DHT22;26371;56.992;23.912;2024-01-11T06:16:37;2.50;99.90
40153;DHT22;26371;56.992;23.912;2024-01-11T06:19:09;2.50;99.90
40153;DHT22;26371;56.992;23.912;2024-01-11T06:21:39;2.50;99.90
40153;DHT22;26371;56.992;23.912;2024-01-11T06:24:08;2.40;99.90
40153;DHT22;26371;56.992;23.912;2024-01-11T06:26:37;2.40;99.90
40153;DHT22;26371;56.992;23.912;2024-01-11T06:29:06;2.40;99.90
40153;DHT22;26371;56.992;23.912;2024-01-11T06:31:35;2.30;99.90
40153;DHT22;26371;56.992;23.912;2024-01-11T06:34:04;2.30;99.90
40153;DHT22;26371;56.992;23.912;2024-01-11T06:36:34;2.30;99.90
40153;DHT22;26371;56.992;23.912;2024-01-11T06:39:03;2.30;99.90
40153;DHT22;26371;56.992;23.912;2024-01-11T06:41:33;2.40;99.90
40153;DHT22;26371;56.992;23.912;2024-01-11T06:44:02;2.40;99.90
40153;DHT22;26371;56.992;23.912;2024-01-11T06:46:39;2.40;99.90
40153;DHT22;26371;56.992;23.912;2024-01-11T06:49:11;2.40;99.90
40153;DHT22;26371;56.992;23.912;2024-01-11T06:51:42;2.40;99.90
40153;DHT22;26371;56.992;23.912;2024-01-11T06:54:10;2.50;99.90
40153;DHT22;26371;56.992;23.912;2024-01-11T06:56:39;2.50;99.90
40153;DHT22;26371;56.992;23.912;2024-01-11T06:59:08;2.50;99.90
40153;DHT22;26371;56.992;23.912;2024-01-11T07:01:37;2.60;99.90
40153;DHT22;26371;56.992;23.912;2024-01-11T07:04:06;2.60;99.90
40153;DHT22;26371;56.992;23.912;2024-01-11T07:06:36;2.60;99.90
40153;DHT22;26371;56.992;23.912;2024-01-11T07:09:07;2.60;99.90
40153;DHT22;26371;56.992;23.912;2024-01-11T07:11:38;2.60;99.90
40153;DHT22;26371;56.992;23.912;2024-01-11T07:14:07;2.60;99.90
40153;DHT22;26371;56.992;23.912;2024-01-11T07:16:36;2.60;99.90
40153;DHT22;26371;56.992;23.912;2024-01-11T07:19:05;2.60;99.90
40153;DHT22;26371;56.992;23.912;2024-01-11T07:21:34;2.50;99.90
40153;DHT22;26371;56.992;23.912;2024-01-11T07:24:04;2.50;99.90
40153;DHT22;26371;56.992;23.912;2024-01-11T07:26:34;2.50;99.90
40153;DHT22;26371;56.992;23.912;2024-01-11T07:29:03;2.50;99.90
40153;DHT22;26371;56.992;23.912;2024-01-11T07:31:33;2.50;99.90
40153;DHT22;26371;56.992;23.912;2024-01-11T07:34:03;2.40;99.90
40153;DHT22;26371;56.992;23.912;2024-01-11T07:36:32;2.50;99.90
40153;DHT22;26371;56.992;23.912;2024-01-11T07:39:01;2.40;99.90
40153;DHT22;26371;56.992;23.912;2024-01-11T07:41:30;2.40;99.90
40153;DHT22;26371;56.992;23.912;2024-01-11T07:44:00;2.40;99.90
40153;DHT22;26371;56.992;23.912;2024-01-11T07:46:29;2.30;99.90
40153;DHT22;26371;56.992;23.912;2024-01-11T07:49:08;2.40;99.90
40153;DHT22;26371;56.992;23.912;2024-01-11T07:51:37;2.40;99.90
40153;DHT22;26371;56.992;23.912;2024-01-11T07:54:06;2.40;99.90
40153;DHT22;26371;56.992;23.912;2024-01-11T07:56:35;2.40;99.90
40153;DHT22;26371;56.992;23.912;2024-01-11T07:59:05;2.40;99.90
40153;DHT22;26371;56.992;23.912;2024-01-11T08:01:35;2.40;99.90
40153;DHT22;26371;56.992;23.912;2024-01-11T08:04:04;2.40;99.90
40153;DHT22;26371;56.992;23.912;2024-01-11T08:06:33;2.40;99.90
40153;DHT22;26371;56.992;23.912;2024-01-11T08:09:02;2.30;99.90
40153;DHT22;26371;56.992;23.912;2024-01-11T08:11:32;2.30;99.90
40153;DHT22;26371;56.992;23.912;2024-01-11T08:14:05;2.30;99.90
40153;DHT22;26371;56.992;23.912;2024-01-11T08:16:34;2.30;99.90
40153;DHT22;26371;56.992;23.912;2024-01-11T08:19:03;2.30;99.90
40153;DHT22;26371;56.992;23.912;2024-01-11T08:21:33;2.40;99.90
40153;DHT22;26371;56.992;23.912;2024-01-11T08:24:02;2.40;99.90
40153;DHT22;26371;56.992;23.912;2024-01-11T08:26:31;2.30;99.90
40153;DHT22;26371;56.992;23.912;2024-01-11T08:29:01;2.30;99.90
40153;DHT22;26371;56.992;23.912;2024-01-11T08:31:36;2.30;99.90
40153;DHT22;26371;56.992;23.912;2024-01-11T08:34:06;2.30;99.90
40153;DHT22;26371;56.992;23.912;2024-01-11T08:36:36;2.30;99.90
40153;DHT22;26371;56.992;23.912;2024-01-11T08:39:06;2.30;99.90
40153;DHT22;26371;56.992;23.912;2024-01-11T08:41:35;2.30;99.90
40153;DHT22;26371;56.992;23.912;2024-01-11T08:44:05;2.20;99.90
40153;DHT22;26371;56.992;23.912;2024-01-11T08:46:35;2.20;99.90
40153;DHT22;26371;56.992;23.912;2024-01-11T08:49:05;2.20;99.90
40153;DHT22;26371;56.992;23.912;2024-01-11T08:51:34;2.20;99.90
40153;DHT22;26371;56.992;23.912;2024-01-11T08:54:03;2.10;99.90
40153;DHT22;26371;56.992;23.912;2024-01-11T08:56:36;2.10;99.90
40153;DHT22;26371;56.992;23.912;2024-01-11T08:59:06;2.10;99.90
40153;DHT22;26371;56.992;23.912;2024-01-11T09:01:37;2.10;99.90
40153;DHT22;26371;56.992;23.912;2024-01-11T09:04:11;2.10;99.90
40153;DHT22;26371;56.992;23.912;2024-01-11T09:06:41;2.10;99.90
40153;DHT22;26371;56.992;23.912;2024-01-11T09:09:11;2.10;99.90
40153;DHT22;26371;56.992;23.912;2024-01-11T09:11:41;2.10;99.90
40153;DHT22;26371;56.992;23.912;2024-01-11T09:14:10;2.00;99.90
40153;DHT22;26371;56.992;23.912;2024-01-11T09:16:41;2.00;99.90
40153;DHT22;26371;56.992;23.912;2024-01-11T09:19:12;2.00;99.90
40153;DHT22;26371;56.992;23.912;2024-01-11T09:21:41;2.00;99.90
40153;DHT22;26371;56.992;23.912;2024-01-11T09:24:10;2.00;99.90
40153;DHT22;26371;56.992;23.912;2024-01-11T09:26:39;2.00;99.90
40153;DHT22;26371;56.992;23.912;2024-01-11T09:29:08;1.90;99.90
40153;DHT22;26371;56.992;23.912;2024-01-11T09:31:37;2.00;99.90
40153;DHT22;26371;56.992;23.912;2024-01-11T09:34:08;2.00;99.90
40153;DHT22;26371;56.992;23.912;2024-01-11T09:36:40;1.90;99.90
40153;DHT22;26371;56.992;23.912;2024-01-11T09:39:09;1.90;99.90
40153;DHT22;26371;56.992;23.912;2024-01-11T09:41:42;1.90;99.90
40153;DHT22;26371;56.992;23.912;2024-01-11T09:44:12;1.90;99.90
40153;DHT22;26371;56.992;23.912;2024-01-11T09:46:42;1.90;99.90
40153;DHT22;26371;56.992;23.912;2024-01-11T09:49:13;1.90;99.90
40153;DHT22;26371;56.992;23.912;2024-01-11T09:51:44;1.80;99.90
40153;DHT22;26371;56.992;23.912;2024-01-11T09:54:15;1.80;99.90
40153;DHT22;26371;56.992;23.912;2024-01-11T09:56:44;1.70;99.90
40153;DHT22;26371;56.992;23.912;2024-01-11T09:59:15;1.70;99.90
40153;DHT22;26371;56.992;23.912;2024-01-11T10:01:46;1.70;99.90
40153;DHT22;26371;56.992;23.912;2024-01-11T10:04:17;1.70;99.90
40153;DHT22;26371;56.992;23.912;2024-01-11T10:06:46;1.70;99.90
40153;DHT22;26371;56.992;23.912;2024-01-11T10:09:21;1.70;99.90
40153;DHT22;26371;56.992;23.912;2024-01-11T10:11:50;1.70;99.90
40153;DHT22;26371;56.992;23.912;2024-01-11T10:14:20;1.70;99.90
40153;DHT22;26371;56.992;23.912;2024-01-11T10:16:49;1.70;99.90
40153;DHT22;26371;56.992;23.912;2024-01-11T10:19:19;1.70;99.90
40153;DHT22;26371;56.992;23.912;2024-01-11T10:21:49;1.60;99.90
40153;DHT22;26371;56.992;23.912;2024-01-11T10:24:19;1.60;99.90
40153;DHT22;26371;56.992;23.912;2024-01-11T10:26:52;1.60;99.90
40153;DHT22;26371;56.992;23.912;2024-01-11T10:29:28;1.60;99.90
40153;DHT22;26371;56.992;23.912;2024-01-11T10:31:59;1.60;99.90
40153;DHT22;26371;56.992;23.912;2024-01-11T10:34:29;1.50;99.90
40153;DHT22;26371;56.992;23.912;2024-01-11T10:36:59;1.50;99.90
40153;DHT22;26371;56.992;23.912;2024-01-11T10:39:29;1.50;99.90
40153;DHT22;26371;56.992;23.912;2024-01-11T10:42:04;1.50;99.90
40153;DHT22;26371;56.992;23.912;2024-01-11T10:44:35;1.50;99.90
40153;DHT22;26371;56.992;23.912;2024-01-11T10:47:04;1.40;99.90
40153;DHT22;26371;56.992;23.912;2024-01-11T10:49:39;1.40;99.90
40153;DHT22;26371;56.992;23.912;2024-01-11T10:52:12;1.40;99.90
40153;DHT22;26371;56.992;23.912;2024-01-11T10:54:42;1.30;99.90
40153;DHT22;26371;56.992;23.912;2024-01-11T10:57:12;1.40;99.90
40153;DHT22;26371;56.992;23.912;2024-01-11T10:59:47;1.30;99.90
40153;DHT22;26371;56.992;23.912;2024-01-11T11:02:17;1.30;99.90
40153;DHT22;26371;56.992;23.912;2024-01-11T11:04:51;1.30;99.90
40153;DHT22;26371;56.992;23.912;2024-01-11T11:07:21;1.30;99.90
40153;DHT22;26371;56.992;23.912;2024-01-11T11:09:51;1.30;99.90
40153;DHT22;26371;56.992;23.912;2024-01-11T11:12:22;1.30;99.90
40153;DHT22;26371;56.992;23.912;2024-01-11T11:14:52;1.30;99.90
40153;DHT22;26371;56.992;23.912;2024-01-11T11:17:22;1.30;99.90
40153;DHT22;26371;56.992;23.912;2024-01-11T11:19:53;1.30;99.90
40153;DHT22;26371;56.992;23.912;2024-01-11T11:22:22;1.20;99.90
40153;DHT22;26371;56.992;23.912;2024-01-11T11:25:03;1.20;99.90
40153;DHT22;26371;56.992;23.912;2024-01-11T11:27:33;1.10;99.90
40153;DHT22;26371;56.992;23.912;2024-01-11T11:30:03;1.00;99.90
40153;DHT22;26371;56.992;23.912;2024-01-11T11:32:36;0.80;99.90
40153;DHT22;26371;56.992;23.912;2024-01-11T11:35:08;0.60;99.90
40153;DHT22;26371;56.992;23.912;2024-01-11T11:37:37;0.60;99.90
40153;DHT22;26371;56.992;23.912;2024-01-11T11:40:09;0.50;99.90
40153;DHT22;26371;56.992;23.912;2024-01-11T11:42:39;0.50;99.90
40153;DHT22;26371;56.992;23.912;2024-01-11T11:45:11;0.50;99.90
40153;DHT22;26371;56.992;23.912;2024-01-11T11:47:40;0.50;99.90
40153;DHT22;26371;56.992;23.912;2024-01-11T11:50:12;0.50;99.90
40153;DHT22;26371;56.992;23.912;2024-01-11T11:52:41;0.60;99.90
40153;DHT22;26371;56.992;23.912;2024-01-11T11:55:12;0.60;99.90
40153;DHT22;26371;56.992;23.912;2024-01-11T11:57:43;0.60;99.90
40153;DHT22;26371;56.992;23.912;2024-01-11T12:00:14;0.50;99.90
40153;DHT22;26371;56.992;23.912;2024-01-11T12:02:44;0.50;99.90
40153;DHT22;26371;56.992;23.912;2024-01-11T12:05:17;0.50;99.90
40153;DHT22;26371;56.992;23.912;2024-01-11T12:07:47;0.40;99.90
40153;DHT22;26371;56.992;23.912;2024-01-11T12:10:18;0.40;99.90
40153;DHT22;26371;56.992;23.912;2024-01-11T12:12:47;0.30;99.90
40153;DHT22;26371;56.992;23.912;2024-01-11T12:15:17;0.30;99.90
40153;DHT22;26371;56.992;23.912;2024-01-11T12:17:57;0.30;99.90
40153;DHT22;26371;56.992;23.912;2024-01-11T12:20:28;0.30;99.90
40153;DHT22;26371;56.992;23.912;2024-01-11T12:22:58;0.40;99.90
40153;DHT22;26371;56.992;23.912;2024-01-11T12:25:30;0.40;99.90
40153;DHT22;26371;56.992;23.912;2024-01-11T12:28:02;0.30;99.90
40153;DHT22;26371;56.992;23.912;2024-01-11T12:30:32;0.30;99.90
40153;DHT22;26371;56.992;23.912;2024-01-11T12:33:02;0.30;99.90
40153;DHT22;26371;56.992;23.912;2024-01-11T12:35:33;0.30;99.90
40153;DHT22;26371;56.992;23.912;2024-01-11T12:38:04;0.20;99.90
40153;DHT22;26371;56.992;23.912;2024-01-11T12:40:34;0.20;99.90
40153;DHT22;26371;56.992;23.912;2024-01-11T12:43:06;0.10;99.90
40153;DHT22;26371;56.992;23.912;2024-01-11T12:45:36;0.00;99.90
40153;DHT22;26371;56.992;23.912;2024-01-11T12:48:07;-0.10;99.90
40153;DHT22;26371;56.992;23.912;2024-01-11T12:50:38;-0.10;99.90
40153;DHT22;26371;56.992;23.912;2024-01-11T12:53:08;-0.20;99.90
40153;DHT22;26371;56.992;23.912;2024-01-11T12:55:39;-0.20;99.90
40153;DHT22;26371;56.992;23.912;2024-01-11T12:58:24;-0.30;99.90
40153;DHT22;26371;56.992;23.912;2024-01-11T13:00:54;-0.30;99.90
40153;DHT22;26371;56.992;23.912;2024-01-11T13:03:25;-0.30;99.90
40153;DHT22;26371;56.992;23.912;2024-01-11T13:05:59;-0.30;99.90
40153;DHT22;26371;56.992;23.912;2024-01-11T13:08:28;-0.30;99.90
40153;DHT22;26371;56.992;23.912;2024-01-11T13:10:59;-0.40;99.90
40153;DHT22;26371;56.992;23.912;2024-01-11T13:13:33;-0.40;99.90
40153;DHT22;26371;56.992;23.912;2024-01-11T13:16:02;-0.40;99.90
40153;DHT22;26371;56.992;23.912;2024-01-11T13:18:33;-0.40;99.90
40153;DHT22;26371;56.992;23.912;2024-01-11T13:21:05;-0.40;99.90
40153;DHT22;26371;56.992;23.912;2024-01-11T13:23:35;-0.30;99.90
40153;DHT22;26371;56.992;23.912;2024-01-11T13:26:06;-0.30;99.90
40153;DHT22;26371;56.992;23.912;2024-01-11T13:28:36;-0.30;99.90
40153;DHT22;26371;56.992;23.912;2024-01-11T13:31:05;-0.40;99.90
40153;DHT22;26371;56.992;23.912;2024-01-11T13:33:38;-0.40;99.90
40153;DHT22;26371;56.992;23.912;2024-01-11T13:36:15;-0.30;99.90
40153;DHT22;26371;56.992;23.912;2024-01-11T13:38:47;-0.40;99.90
40153;DHT22;26371;56.992;23.912;2024-01-11T13:41:16;-0.50;99.90
40153;DHT22;26371;56.992;23.912;2024-01-11T13:43:45;-0.50;99.90
40153;DHT22;26371;56.992;23.912;2024-01-11T13:46:15;-0.50;99.90
40153;DHT22;26371;56.992;23.912;2024-01-11T13:48:47;-0.50;99.70
40153;DHT22;26371;56.992;23.912;2024-01-11T13:51:17;-0.60;98.00
40153;DHT22;26371;56.992;23.912;2024-01-11T13:53:46;-0.60;96.80
40153;DHT22;26371;56.992;23.912;2024-01-11T13:56:15;-0.70;97.40
40153;DHT22;26371;56.992;23.912;2024-01-11T13:58:46;-0.70;98.60
40153;DHT22;26371;56.992;23.912;2024-01-11T14:01:15;-0.80;98.70
40153;DHT22;26371;56.992;23.912;2024-01-11T14:03:44;-0.80;98.70
40153;DHT22;26371;56.992;23.912;2024-01-11T14:06:13;-0.80;99.80
40153;DHT22;26371;56.992;23.912;2024-01-11T14:08:43;-0.80;98.90
40153;DHT22;26371;56.992;23.912;2024-01-11T14:11:13;-0.90;99.50
40153;DHT22;26371;56.992;23.912;2024-01-11T14:13:42;-0.90;99.70
40153;DHT22;26371;56.992;23.912;2024-01-11T14:16:11;-0.90;99.60
40153;DHT22;26371;56.992;23.912;2024-01-11T14:18:41;-0.90;99.80
40153;DHT22;26371;56.992;23.912;2024-01-11T14:21:10;-1.00;99.70
40153;DHT22;26371;56.992;23.912;2024-01-11T14:23:39;-1.00;98.60
40153;DHT22;26371;56.992;23.912;2024-01-11T14:26:09;-1.00;97.80
40153;DHT22;26371;56.992;23.912;2024-01-11T14:28:39;-1.10;97.50
40153;DHT22;26371;56.992;23.912;2024-01-11T14:31:10;-1.10;96.90
40153;DHT22;26371;56.992;23.912;2024-01-11T14:33:39;-1.10;97.80
40153;DHT22;26371;56.992;23.912;2024-01-11T14:36:08;-1.20;98.20
40153;DHT22;26371;56.992;23.912;2024-01-11T14:38:37;-1.20;98.90
40153;DHT22;26371;56.992;23.912;2024-01-11T14:41:06;-1.20;99.10
40153;DHT22;26371;56.992;23.912;2024-01-11T14:43:39;-1.20;98.60
40153;DHT22;26371;56.992;23.912;2024-01-11T14:46:07;-1.20;98.40
40153;DHT22;26371;56.992;23.912;2024-01-11T14:48:38;-1.20;97.50
40153;DHT22;26371;56.992;23.912;2024-01-11T14:51:08;-1.20;98.70
40153;DHT22;26371;56.992;23.912;2024-01-11T14:53:38;-1.20;97.10
40153;DHT22;26371;56.992;23.912;2024-01-11T14:56:07;-1.30;97.60
40153;DHT22;26371;56.992;23.912;2024-01-11T14:58:39;-1.30;97.00
40153;DHT22;26371;56.992;23.912;2024-01-11T15:01:08;-1.30;97.40
40153;DHT22;26371;56.992;23.912;2024-01-11T15:03:37;-1.30;97.20
40153;DHT22;26371;56.992;23.912;2024-01-11T15:06:06;-1.30;97.70
40153;DHT22;26371;56.992;23.912;2024-01-11T15:08:37;-1.40;97.50
40153;DHT22;26371;56.992;23.912;2024-01-11T15:11:06;-1.30;98.90
40153;DHT22;26371;56.992;23.912;2024-01-11T15:13:36;-1.30;98.90
40153;DHT22;26371;56.992;23.912;2024-01-11T15:16:06;-1.30;98.70
40153;DHT22;26371;56.992;23.912;2024-01-11T15:18:35;-1.40;97.30
40153;DHT22;26371;56.992;23.912;2024-01-11T15:21:04;-1.40;97.60
40153;DHT22;26371;56.992;23.912;2024-01-11T15:23:34;-1.40;98.50
40153;DHT22;26371;56.992;23.912;2024-01-11T15:26:03;-1.40;98.80
40153;DHT22;26371;56.992;23.912;2024-01-11T15:28:32;-1.50;97.60
40153;DHT22;26371;56.992;23.912;2024-01-11T15:31:03;-1.50;97.00
40153;DHT22;26371;56.992;23.912;2024-01-11T15:33:33;-1.50;97.50
40153;DHT22;26371;56.992;23.912;2024-01-11T15:36:03;-1.50;97.60
40153;DHT22;26371;56.992;23.912;2024-01-11T15:38:33;-1.50;97.20
40153;DHT22;26371;56.992;23.912;2024-01-11T15:41:02;-1.50;97.10
40153;DHT22;26371;56.992;23.912;2024-01-11T15:43:32;-1.50;97.70